sensor_id;sensor_type;location;lat;lon;timestamp;P1;durP1;ratioP1;P2;durP2;ratioP2
32094;SDS011;18608;53.688;10.748;2023-08-08T00:01:21;4.00;;;2.80;;
32094;SDS011;18608;53.688;10.748;2023-08-08T00:03:47;4.60;;;3.17;;
32094;SDS011;18608;53.688;10.748;2023-08-08T00:06:13;6.10;;;2.37;;
32094;SDS011;18608;53.688;10.748;2023-08-08T00:08:39;9.23;;;2.97;;
32094;SDS011;18608;53.688;10.748;2023-08-08T00:11:05;2.63;;;2.00;;
32094;SDS011;18608;53.688;10.748;2023-08-08T00:13:31;3.97;;;2.90;;
32094;SDS011;18608;53.688;10.748;2023-08-08T00:15:57;10.30;;;3.10;;
32094;SDS011;18608;53.688;10.748;2023-08-08T00:18:23;5.03;;;1.90;;
32094;SDS011;18608;53.688;10.748;2023-08-08T00:20:49;6.03;;;2.53;;
32094;SDS011;18608;53.688;10.748;2023-08-08T00:23:15;4.00;;;3.07;;
32094;SDS011;18608;53.688;10.748;2023-08-08T00:25:41;3.77;;;2.20;;
32094;SDS011;18608;53.688;10.748;2023-08-08T00:28:07;1.60;;;1.50;;
32094;SDS011;18608;53.688;10.748;2023-08-08T00:30:33;8.23;;;3.13;;
32094;SDS011;18608;53.688;10.748;2023-08-08T00:32:59;7.73;;;2.60;;
32094;SDS011;18608;53.688;10.748;2023-08-08T00:35:25;12.27;;;2.13;;
32094;SDS011;18608;53.688;10.748;2023-08-08T00:37:51;5.37;;;2.33;;
32094;SDS011;18608;53.688;10.748;2023-08-08T00:40:17;6.57;;;2.23;;
32094;SDS011;18608;53.688;10.748;2023-08-08T00:42:43;9.40;;;2.50;;
32094;SDS011;18608;53.688;10.748;2023-08-08T00:45:09;6.80;;;2.20;;
32094;SDS011;18608;53.688;10.748;2023-08-08T00:47:35;9.17;;;3.30;;
32094;SDS011;18608;53.688;10.748;2023-08-08T00:50:02;2.83;;;1.90;;
32094;SDS011;18608;53.688;10.748;2023-08-08T00:52:28;5.10;;;2.90;;
32094;SDS011;18608;53.688;10.748;2023-08-08T00:54:55;3.67;;;2.10;;
32094;SDS011;18608;53.688;10.748;2023-08-08T00:57:21;7.40;;;1.93;;
32094;SDS011;18608;53.688;10.748;2023-08-08T00:59:47;6.00;;;2.63;;
32094;SDS011;18608;53.688;10.748;2023-08-08T01:02:13;3.70;;;2.83;;
32094;SDS011;18608;53.688;10.748;2023-08-08T01:04:39;3.77;;;2.20;;
32094;SDS011;18608;53.688;10.748;2023-08-08T01:12:29;5.80;;;2.83;;
32094;SDS011;18608;53.688;10.748;2023-08-08T01:14:55;16.80;;;2.67;;
32094;SDS011;18608;53.688;10.748;2023-08-08T01:17:22;5.93;;;2.60;;
32094;SDS011;18608;53.688;10.748;2023-08-08T01:19:50;4.03;;;2.37;;
32094;SDS011;18608;53.688;10.748;2023-08-08T01:22:22;4.67;;;2.67;;
32094;SDS011;18608;53.688;10.748;2023-08-08T01:24:50;15.37;;;2.90;;
32094;SDS011;18608;53.688;10.748;2023-08-08T01:27:17;7.73;;;3.40;;
32094;SDS011;18608;53.688;10.748;2023-08-08T01:29:42;10.17;;;2.90;;
32094;SDS011;18608;53.688;10.748;2023-08-08T01:32:08;4.63;;;2.60;;
32094;SDS011;18608;53.688;10.748;2023-08-08T01:34:35;6.53;;;1.90;;
32094;SDS011;18608;53.688;10.748;2023-08-08T01:39:34;4.00;;;3.00;;
32094;SDS011;18608;53.688;10.748;2023-08-08T01:42:02;3.60;;;2.20;;
32094;SDS011;18608;53.688;10.748;2023-08-08T01:44:28;4.57;;;2.83;;
32094;SDS011;18608;53.688;10.748;2023-08-08T01:46:55;4.80;;;2.47;;
32094;SDS011;18608;53.688;10.748;2023-08-08T01:49:21;9.87;;;2.97;;
32094;SDS011;18608;53.688;10.748;2023-08-08T01:51:47;5.83;;;2.90;;
32094;SDS011;18608;53.688;10.748;2023-08-08T01:54:13;5.27;;;2.27;;
32094;SDS011;18608;53.688;10.748;2023-08-08T01:56:39;4.43;;;3.20;;
32094;SDS011;18608;53.688;10.748;2023-08-08T01:59:05;5.03;;;2.40;;
32094;SDS011;18608;53.688;10.748;2023-08-08T02:01:31;4.60;;;2.20;;
32094;SDS011;18608;53.688;10.748;2023-08-08T02:03:57;7.97;;;3.67;;
32094;SDS011;18608;53.688;10.748;2023-08-08T02:06:23;12.17;;;3.27;;
32094;SDS011;18608;53.688;10.748;2023-08-08T02:08:49;5.43;;;3.00;;
32094;SDS011;18608;53.688;10.748;2023-08-08T02:11:15;10.37;;;3.80;;
32094;SDS011;18608;53.688;10.748;2023-08-08T02:13:41;5.87;;;3.33;;
32094;SDS011;18608;53.688;10.748;2023-08-08T02:16:07;4.00;;;3.47;;
32094;SDS011;18608;53.688;10.748;2023-08-08T02:18:33;4.43;;;2.37;;
32094;SDS011;18608;53.688;10.748;2023-08-08T02:21:01;8.20;;;3.20;;
32094;SDS011;18608;53.688;10.748;2023-08-08T02:23:27;15.33;;;3.43;;
32094;SDS011;18608;53.688;10.748;2023-08-08T02:25:53;5.53;;;2.83;;
32094;SDS011;18608;53.688;10.748;2023-08-08T02:28:19;4.00;;;2.40;;
32094;SDS011;18608;53.688;10.748;2023-08-08T02:30:45;7.43;;;3.57;;
32094;SDS011;18608;53.688;10.748;2023-08-08T02:33:11;8.00;;;2.40;;
32094;SDS011;18608;53.688;10.748;2023-08-08T02:35:37;5.00;;;3.20;;
32094;SDS011;18608;53.688;10.748;2023-08-08T02:38:03;3.83;;;2.47;;
32094;SDS011;18608;53.688;10.748;2023-08-08T02:40:29;5.27;;;2.20;;
32094;SDS011;18608;53.688;10.748;2023-08-08T02:42:55;6.57;;;2.80;;
32094;SDS011;18608;53.688;10.748;2023-08-08T02:45:21;6.10;;;3.80;;
32094;SDS011;18608;53.688;10.748;2023-08-08T02:47:47;3.40;;;2.60;;
32094;SDS011;18608;53.688;10.748;2023-08-08T02:50:13;2.67;;;2.23;;
32094;SDS011;18608;53.688;10.748;2023-08-08T02:52:39;5.80;;;3.07;;
32094;SDS011;18608;53.688;10.748;2023-08-08T02:55:06;4.17;;;2.50;;
32094;SDS011;18608;53.688;10.748;2023-08-08T02:57:32;3.57;;;2.43;;
32094;SDS011;18608;53.688;10.748;2023-08-08T02:59:58;3.37;;;2.73;;
32094;SDS011;18608;53.688;10.748;2023-08-08T03:02:24;5.83;;;2.87;;
32094;SDS011;18608;53.688;10.748;2023-08-08T03:04:50;8.13;;;3.10;;
32094;SDS011;18608;53.688;10.748;2023-08-08T03:07:16;10.90;;;3.33;;
32094;SDS011;18608;53.688;10.748;2023-08-08T03:09:42;7.00;;;2.53;;
32094;SDS011;18608;53.688;10.748;2023-08-08T03:12:08;6.70;;;2.93;;
32094;SDS011;18608;53.688;10.748;2023-08-08T03:14:34;5.10;;;2.57;;
32094;SDS011;18608;53.688;10.748;2023-08-08T03:17:00;3.33;;;2.60;;
32094;SDS011;18608;53.688;10.748;2023-08-08T03:19:27;2.47;;;2.27;;
32094;SDS011;18608;53.688;10.748;2023-08-08T03:21:53;10.80;;;2.70;;
32094;SDS011;18608;53.688;10.748;2023-08-08T03:24:19;2.20;;;2.00;;
32094;SDS011;18608;53.688;10.748;2023-08-08T03:26:45;4.50;;;2.37;;
32094;SDS011;18608;53.688;10.748;2023-08-08T03:29:11;7.13;;;2.33;;
32094;SDS011;18608;53.688;10.748;2023-08-08T03:31:37;7.50;;;2.20;;
32094;SDS011;18608;53.688;10.748;2023-08-08T03:34:03;7.97;;;2.40;;
32094;SDS011;18608;53.688;10.748;2023-08-08T03:36:30;9.87;;;2.23;;
32094;SDS011;18608;53.688;10.748;2023-08-08T03:38:56;8.20;;;2.03;;
32094;SDS011;18608;53.688;10.748;2023-08-08T03:41:22;4.33;;;2.70;;
32094;SDS011;18608;53.688;10.748;2023-08-08T03:43:48;8.70;;;3.20;;
32094;SDS011;18608;53.688;10.748;2023-08-08T03:46:14;16.80;;;2.33;;
32094;SDS011;18608;53.688;10.748;2023-08-08T03:48:40;7.63;;;1.60;;
32094;SDS011;18608;53.688;10.748;2023-08-08T03:51:06;3.93;;;2.17;;
32094;SDS011;18608;53.688;10.748;2023-08-08T03:53:32;4.83;;;1.53;;
32094;SDS011;18608;53.688;10.748;2023-08-08T03:55:58;4.00;;;2.43;;
32094;SDS011;18608;53.688;10.748;2023-08-08T03:58:24;5.17;;;2.10;;
32094;SDS011;18608;53.688;10.748;2023-08-08T04:00:50;4.07;;;2.03;;
32094;SDS011;18608;53.688;10.748;2023-08-08T04:03:18;13.97;;;2.20;;
32094;SDS011;18608;53.688;10.748;2023-08-08T04:05:44;3.13;;;2.57;;
32094;SDS011;18608;53.688;10.748;2023-08-08T04:08:13;1.73;;;1.63;;
32094;SDS011;18608;53.688;10.748;2023-08-08T04:10:39;3.50;;;3.20;;
32094;SDS011;18608;53.688;10.748;2023-08-08T04:13:05;2.67;;;1.90;;
32094;SDS011;18608;53.688;10.748;2023-08-08T04:15:31;13.30;;;2.30;;
32094;SDS011;18608;53.688;10.748;2023-08-08T04:17:57;6.00;;;2.17;;
32094;SDS011;18608;53.688;10.748;2023-08-08T04:20:23;6.73;;;2.40;;
32094;SDS011;18608;53.688;10.748;2023-08-08T04:22:49;4.10;;;1.83;;
32094;SDS011;18608;53.688;10.748;2023-08-08T04:25:15;3.60;;;1.67;;
32094;SDS011;18608;53.688;10.748;2023-08-08T04:27:41;5.03;;;2.37;;
32094;SDS011;18608;53.688;10.748;2023-08-08T04:30:08;7.00;;;2.47;;
32094;SDS011;18608;53.688;10.748;2023-08-08T04:32:34;6.23;;;2.07;;
32094;SDS011;18608;53.688;10.748;2023-08-08T04:35:00;4.70;;;1.70;;
32094;SDS011;18608;53.688;10.748;2023-08-08T04:37:26;4.50;;;1.83;;
32094;SDS011;18608;53.688;10.748;2023-08-08T04:39:52;10.33;;;2.10;;
32094;SDS011;18608;53.688;10.748;2023-08-08T04:42:18;7.30;;;2.43;;
32094;SDS011;18608;53.688;10.748;2023-08-08T04:44:44;4.20;;;2.00;;
32094;SDS011;18608;53.688;10.748;2023-08-08T04:47:10;1.70;;;1.60;;
32094;SDS011;18608;53.688;10.748;2023-08-08T04:49:36;5.53;;;2.27;;
32094;SDS011;18608;53.688;10.748;2023-08-08T04:52:02;3.77;;;1.90;;
32094;SDS011;18608;53.688;10.748;2023-08-08T04:54:27;3.83;;;2.03;;
32094;SDS011;18608;53.688;10.748;2023-08-08T04:56:53;3.40;;;2.10;;
32094;SDS011;18608;53.688;10.748;2023-08-08T04:59:19;6.97;;;1.87;;
32094;SDS011;18608;53.688;10.748;2023-08-08T05:01:45;4.03;;;2.20;;
32094;SDS011;18608;53.688;10.748;2023-08-08T05:04:11;2.40;;;1.60;;
32094;SDS011;18608;53.688;10.748;2023-08-08T05:06:37;4.23;;;2.37;;
32094;SDS011;18608;53.688;10.748;2023-08-08T05:09:03;4.03;;;2.47;;
32094;SDS011;18608;53.688;10.748;2023-08-08T05:11:29;7.63;;;2.40;;
32094;SDS011;18608;53.688;10.748;2023-08-08T05:13:55;3.10;;;1.90;;
32094;SDS011;18608;53.688;10.748;2023-08-08T05:16:21;2.40;;;2.00;;
32094;SDS011;18608;53.688;10.748;2023-08-08T05:18:49;1.73;;;1.63;;
32094;SDS011;18608;53.688;10.748;2023-08-08T05:21:15;8.17;;;2.37;;
32094;SDS011;18608;53.688;10.748;2023-08-08T05:23:41;1.87;;;1.53;;
32094;SDS011;18608;53.688;10.748;2023-08-08T05:26:07;2.50;;;2.30;;
32094;SDS011;18608;53.688;10.748;2023-08-08T05:28:33;4.00;;;2.33;;
32094;SDS011;18608;53.688;10.748;2023-08-08T05:30:59;8.80;;;2.20;;
32094;SDS011;18608;53.688;10.748;2023-08-08T05:33:26;9.70;;;2.60;;
32094;SDS011;18608;53.688;10.748;2023-08-08T05:35:52;4.40;;;2.70;;
32094;SDS011;18608;53.688;10.748;2023-08-08T05:38:18;2.13;;;2.00;;
32094;SDS011;18608;53.688;10.748;2023-08-08T05:40:44;4.13;;;2.10;;
32094;SDS011;18608;53.688;10.748;2023-08-08T05:43:10;3.00;;;2.03;;
32094;SDS011;18608;53.688;10.748;2023-08-08T05:45:41;5.07;;;2.00;;
32094;SDS011;18608;53.688;10.748;2023-08-08T05:48:07;4.67;;;2.50;;
32094;SDS011;18608;53.688;10.748;2023-08-08T05:50:36;2.50;;;2.13;;
32094;SDS011;18608;53.688;10.748;2023-08-08T05:53:02;1.90;;;1.73;;
32094;SDS011;18608;53.688;10.748;2023-08-08T05:55:29;4.70;;;2.17;;
32094;SDS011;18608;53.688;10.748;2023-08-08T05:57:55;3.27;;;1.97;;
32094;SDS011;18608;53.688;10.748;2023-08-08T06:00:21;4.10;;;1.67;;
32094;SDS011;18608;53.688;10.748;2023-08-08T06:02:47;4.00;;;2.00;;
32094;SDS011;18608;53.688;10.748;2023-08-08T06:05:13;2.20;;;1.70;;
32094;SDS011;18608;53.688;10.748;2023-08-08T06:07:39;4.90;;;1.90;;
32094;SDS011;18608;53.688;10.748;2023-08-08T06:10:06;2.97;;;1.60;;
32094;SDS011;18608;53.688;10.748;2023-08-08T06:12:33;2.57;;;1.47;;
32094;SDS011;18608;53.688;10.748;2023-08-08T06:14:59;1.40;;;1.30;;
32094;SDS011;18608;53.688;10.748;2023-08-08T06:17:25;4.10;;;1.77;;
32094;SDS011;18608;53.688;10.748;2023-08-08T06:19:51;1.57;;;1.47;;
32094;SDS011;18608;53.688;10.748;2023-08-08T06:22:18;2.00;;;1.37;;
32094;SDS011;18608;53.688;10.748;2023-08-08T06:24:44;2.00;;;1.33;;
32094;SDS011;18608;53.688;10.748;2023-08-08T06:27:12;4.00;;;1.53;;
32094;SDS011;18608;53.688;10.748;2023-08-08T06:29:38;5.93;;;1.70;;
32094;SDS011;18608;53.688;10.748;2023-08-08T06:32:04;7.30;;;1.90;;
32094;SDS011;18608;53.688;10.748;2023-08-08T06:34:30;3.97;;;1.67;;
32094;SDS011;18608;53.688;10.748;2023-08-08T06:36:56;7.17;;;2.47;;
32094;SDS011;18608;53.688;10.748;2023-08-08T06:39:22;2.93;;;1.57;;
32094;SDS011;18608;53.688;10.748;2023-08-08T06:41:48;6.30;;;1.90;;
32094;SDS011;18608;53.688;10.748;2023-08-08T06:44:14;3.43;;;1.93;;
32094;SDS011;18608;53.688;10.748;2023-08-08T06:46:40;3.73;;;1.87;;
32094;SDS011;18608;53.688;10.748;2023-08-08T06:49:06;2.47;;;2.13;;
32094;SDS011;18608;53.688;10.748;2023-08-08T06:51:33;2.60;;;1.27;;
32094;SDS011;18608;53.688;10.748;2023-08-08T06:54:00;3.73;;;1.40;;
32094;SDS011;18608;53.688;10.748;2023-08-08T06:56:26;1.53;;;1.27;;
32094;SDS011;18608;53.688;10.748;2023-08-08T06:58:52;1.20;;;1.10;;
32094;SDS011;18608;53.688;10.748;2023-08-08T07:01:18;2.90;;;1.60;;
32094;SDS011;18608;53.688;10.748;2023-08-08T07:03:44;2.93;;;1.63;;
32094;SDS011;18608;53.688;10.748;2023-08-08T07:06:11;4.40;;;1.63;;
32094;SDS011;18608;53.688;10.748;2023-08-08T07:08:38;6.17;;;1.20;;
32094;SDS011;18608;53.688;10.748;2023-08-08T07:11:07;3.13;;;1.10;;
32094;SDS011;18608;53.688;10.748;2023-08-08T07:13:33;6.37;;;1.40;;
32094;SDS011;18608;53.688;10.748;2023-08-08T07:15:59;3.73;;;1.63;;
32094;SDS011;18608;53.688;10.748;2023-08-08T07:18:25;8.10;;;1.60;;
32094;SDS011;18608;53.688;10.748;2023-08-08T07:20:51;3.73;;;2.00;;
32094;SDS011;18608;53.688;10.748;2023-08-08T07:23:18;2.57;;;1.40;;
32094;SDS011;18608;53.688;10.748;2023-08-08T07:25:44;3.67;;;1.30;;
32094;SDS011;18608;53.688;10.748;2023-08-08T07:28:10;2.60;;;1.60;;
32094;SDS011;18608;53.688;10.748;2023-08-08T07:30:36;2.27;;;1.30;;
32094;SDS011;18608;53.688;10.748;2023-08-08T07:33:02;4.10;;;1.60;;
32094;SDS011;18608;53.688;10.748;2023-08-08T07:35:28;1.37;;;1.27;;
32094;SDS011;18608;53.688;10.748;2023-08-08T07:37:54;11.40;;;1.23;;
32094;SDS011;18608;53.688;10.748;2023-08-08T07:40:20;4.53;;;1.40;;
32094;SDS011;18608;53.688;10.748;2023-08-08T07:42:47;17.13;;;1.50;;
32094;SDS011;18608;53.688;10.748;2023-08-08T07:45:13;7.83;;;1.90;;
32094;SDS011;18608;53.688;10.748;2023-08-08T07:47:39;2.20;;;1.40;;
32094;SDS011;18608;53.688;10.748;2023-08-08T07:50:06;1.43;;;1.33;;
32094;SDS011;18608;53.688;10.748;2023-08-08T07:52:36;8.23;;;1.43;;
32094;SDS011;18608;53.688;10.748;2023-08-08T07:55:02;5.23;;;1.40;;
32094;SDS011;18608;53.688;10.748;2023-08-08T07:57:29;3.00;;;1.33;;
32094;SDS011;18608;53.688;10.748;2023-08-08T07:59:56;8.10;;;1.47;;
32094;SDS011;18608;53.688;10.748;2023-08-08T08:02:22;7.80;;;1.50;;
32094;SDS011;18608;53.688;10.748;2023-08-08T08:04:48;5.30;;;1.97;;
32094;SDS011;18608;53.688;10.748;2023-08-08T08:07:14;3.33;;;1.40;;
32094;SDS011;18608;53.688;10.748;2023-08-08T08:09:40;4.43;;;1.40;;
32094;SDS011;18608;53.688;10.748;2023-08-08T08:12:08;3.93;;;1.60;;
32094;SDS011;18608;53.688;10.748;2023-08-08T08:14:33;3.17;;;1.13;;
32094;SDS011;18608;53.688;10.748;2023-08-08T08:17:00;2.00;;;1.30;;
32094;SDS011;18608;53.688;10.748;2023-08-08T08:19:26;1.67;;;1.57;;
32094;SDS011;18608;53.688;10.748;2023-08-08T08:21:52;6.00;;;1.63;;
32094;SDS011;18608;53.688;10.748;2023-08-08T08:24:18;2.50;;;1.30;;
32094;SDS011;18608;53.688;10.748;2023-08-08T08:26:44;2.77;;;1.07;;
32094;SDS011;18608;53.688;10.748;2023-08-08T08:29:10;2.37;;;1.33;;
32094;SDS011;18608;53.688;10.748;2023-08-08T08:31:36;3.43;;;1.20;;
32094;SDS011;18608;53.688;10.748;2023-08-08T08:34:03;8.37;;;1.60;;
32094;SDS011;18608;53.688;10.748;2023-08-08T08:36:29;2.47;;;1.40;;
32094;SDS011;18608;53.688;10.748;2023-08-08T08:38:55;3.97;;;1.40;;
32094;SDS011;18608;53.688;10.748;2023-08-08T08:41:23;3.33;;;1.40;;
32094;SDS011;18608;53.688;10.748;2023-08-08T08:43:53;4.47;;;1.20;;
32094;SDS011;18608;53.688;10.748;2023-08-08T08:46:20;3.87;;;1.50;;
32094;SDS011;18608;53.688;10.748;2023-08-08T08:48:49;5.37;;;1.23;;
32094;SDS011;18608;53.688;10.748;2023-08-08T08:51:17;9.87;;;1.60;;
32094;SDS011;18608;53.688;10.748;2023-08-08T08:53:43;3.77;;;1.30;;
32094;SDS011;18608;53.688;10.748;2023-08-08T08:56:12;5.90;;;1.63;;
32094;SDS011;18608;53.688;10.748;2023-08-08T08:58:39;4.43;;;1.83;;
32094;SDS011;18608;53.688;10.748;2023-08-08T09:01:05;6.57;;;1.57;;
32094;SDS011;18608;53.688;10.748;2023-08-08T09:03:33;9.07;;;2.90;;
32094;SDS011;18608;53.688;10.748;2023-08-08T09:05:59;9.13;;;2.33;;
32094;SDS011;18608;53.688;10.748;2023-08-08T09:08:26;2.53;;;1.80;;
32094;SDS011;18608;53.688;10.748;2023-08-08T09:10:52;6.80;;;2.00;;
32094;SDS011;18608;53.688;10.748;2023-08-08T09:13:18;3.67;;;1.60;;
32094;SDS011;18608;53.688;10.748;2023-08-08T09:15:47;5.53;;;1.20;;
32094;SDS011;18608;53.688;10.748;2023-08-08T09:18:14;2.30;;;1.30;;
32094;SDS011;18608;53.688;10.748;2023-08-08T09:20:39;4.40;;;1.57;;
32094;SDS011;18608;53.688;10.748;2023-08-08T09:23:06;2.10;;;1.20;;
32094;SDS011;18608;53.688;10.748;2023-08-08T09:25:32;4.43;;;1.67;;
32094;SDS011;18608;53.688;10.748;2023-08-08T09:27:58;3.03;;;1.43;;
32094;SDS011;18608;53.688;10.748;2023-08-08T09:30:24;1.50;;;1.40;;
32094;SDS011;18608;53.688;10.748;2023-08-08T09:32:51;7.20;;;1.63;;
32094;SDS011;18608;53.688;10.748;2023-08-08T09:35:17;4.40;;;2.10;;
32094;SDS011;18608;53.688;10.748;2023-08-08T09:37:44;5.00;;;3.40;;
32094;SDS011;18608;53.688;10.748;2023-08-08T09:40:10;5.43;;;1.60;;
32094;SDS011;18608;53.688;10.748;2023-08-08T09:42:36;2.30;;;2.10;;
32094;SDS011;18608;53.688;10.748;2023-08-08T09:45:02;2.70;;;1.33;;
32094;SDS011;18608;53.688;10.748;2023-08-08T09:47:28;2.60;;;1.77;;
32094;SDS011;18608;53.688;10.748;2023-08-08T09:50:01;3.73;;;1.60;;
32094;SDS011;18608;53.688;10.748;2023-08-08T09:52:31;1.30;;;1.20;;
32094;SDS011;18608;53.688;10.748;2023-08-08T09:54:58;2.63;;;1.13;;
32094;SDS011;18608;53.688;10.748;2023-08-08T09:57:25;1.37;;;1.27;;
32094;SDS011;18608;53.688;10.748;2023-08-08T09:59:51;2.43;;;1.37;;
32094;SDS011;18608;53.688;10.748;2023-08-08T10:02:17;8.50;;;1.43;;
32094;SDS011;18608;53.688;10.748;2023-08-08T10:04:47;2.20;;;1.20;;
32094;SDS011;18608;53.688;10.748;2023-08-08T10:07:13;3.10;;;1.57;;
32094;SDS011;18608;53.688;10.748;2023-08-08T10:09:40;2.30;;;1.20;;
32094;SDS011;18608;53.688;10.748;2023-08-08T10:12:07;5.97;;;1.20;;
32094;SDS011;18608;53.688;10.748;2023-08-08T10:14:36;4.53;;;1.20;;
32094;SDS011;18608;53.688;10.748;2023-08-08T10:17:03;4.13;;;1.30;;
32094;SDS011;18608;53.688;10.748;2023-08-08T10:19:29;1.30;;;1.20;;
32094;SDS011;18608;53.688;10.748;2023-08-08T10:21:57;2.17;;;1.00;;
32094;SDS011;18608;53.688;10.748;2023-08-08T10:24:24;1.50;;;1.20;;
32094;SDS011;18608;53.688;10.748;2023-08-08T10:26:54;7.43;;;1.27;;
32094;SDS011;18608;53.688;10.748;2023-08-08T10:29:25;11.90;;;1.30;;
32094;SDS011;18608;53.688;10.748;2023-08-08T10:32:21;1.00;;;0.90;;
32094;SDS011;18608;53.688;10.748;2023-08-08T10:34:46;1.10;;;0.93;;
32094;SDS011;18608;53.688;10.748;2023-08-08T10:37:13;2.20;;;1.00;;
32094;SDS011;18608;53.688;10.748;2023-08-08T10:39:53;1.60;;;1.50;;
32094;SDS011;18608;53.688;10.748;2023-08-08T10:42:22;1.57;;;1.17;;
32094;SDS011;18608;53.688;10.748;2023-08-08T10:44:53;2.57;;;1.53;;
32094;SDS011;18608;53.688;10.748;2023-08-08T10:47:22;1.87;;;0.90;;
32094;SDS011;18608;53.688;10.748;2023-08-08T10:49:58;1.50;;;1.07;;
32094;SDS011;18608;53.688;10.748;2023-08-08T10:52:28;3.40;;;0.90;;
32094;SDS011;18608;53.688;10.748;2023-08-08T10:54:54;1.93;;;0.80;;
32094;SDS011;18608;53.688;10.748;2023-08-08T10:57:23;1.50;;;0.83;;
32094;SDS011;18608;53.688;10.748;2023-08-08T10:59:50;1.07;;;0.80;;
32094;SDS011;18608;53.688;10.748;2023-08-08T11:02:16;1.07;;;0.80;;
32094;SDS011;18608;53.688;10.748;2023-08-08T11:04:43;1.87;;;1.10;;
32094;SDS011;18608;53.688;10.748;2023-08-08T11:07:09;1.77;;;1.13;;
32094;SDS011;18608;53.688;10.748;2023-08-08T11:09:35;4.90;;;1.07;;
32094;SDS011;18608;53.688;10.748;2023-08-08T11:12:01;2.07;;;1.17;;
32094;SDS011;18608;53.688;10.748;2023-08-08T11:14:27;1.23;;;1.13;;
32094;SDS011;18608;53.688;10.748;2023-08-08T11:16:53;2.63;;;1.27;;
32094;SDS011;18608;53.688;10.748;2023-08-08T11:19:20;3.77;;;1.00;;
32094;SDS011;18608;53.688;10.748;2023-08-08T11:21:46;1.43;;;0.80;;
32094;SDS011;18608;53.688;10.748;2023-08-08T11:24:13;4.63;;;1.63;;
32094;SDS011;18608;53.688;10.748;2023-08-08T11:26:39;1.10;;;1.00;;
32094;SDS011;18608;53.688;10.748;2023-08-08T11:29:06;1.73;;;1.10;;
32094;SDS011;18608;53.688;10.748;2023-08-08T11:31:35;3.90;;;1.20;;
32094;SDS011;18608;53.688;10.748;2023-08-08T11:34:02;1.93;;;1.33;;
32094;SDS011;18608;53.688;10.748;2023-08-08T11:36:29;6.10;;;1.60;;
32094;SDS011;18608;53.688;10.748;2023-08-08T11:38:57;2.20;;;1.03;;
32094;SDS011;18608;53.688;10.748;2023-08-08T11:41:28;2.63;;;1.07;;
32094;SDS011;18608;53.688;10.748;2023-08-08T11:43:54;2.03;;;0.80;;
32094;SDS011;18608;53.688;10.748;2023-08-08T11:46:24;2.93;;;0.90;;
32094;SDS011;18608;53.688;10.748;2023-08-08T11:48:50;2.73;;;1.03;;
32094;SDS011;18608;53.688;10.748;2023-08-08T11:51:16;2.73;;;0.90;;
32094;SDS011;18608;53.688;10.748;2023-08-08T11:53:49;1.10;;;0.90;;
32094;SDS011;18608;53.688;10.748;2023-08-08T11:56:19;0.80;;;0.80;;
32094;SDS011;18608;53.688;10.748;2023-08-08T11:58:45;1.00;;;0.90;;
32094;SDS011;18608;53.688;10.748;2023-08-08T12:01:11;1.43;;;0.90;;
32094;SDS011;18608;53.688;10.748;2023-08-08T12:03:39;2.10;;;1.10;;
32094;SDS011;18608;53.688;10.748;2023-08-08T12:06:11;11.97;;;1.07;;
32094;SDS011;18608;53.688;10.748;2023-08-08T12:08:46;1.67;;;1.30;;
32094;SDS011;18608;53.688;10.748;2023-08-08T12:11:13;2.17;;;1.10;;
32094;SDS011;18608;53.688;10.748;2023-08-08T12:13:41;5.27;;;1.30;;
32094;SDS011;18608;53.688;10.748;2023-08-08T12:16:11;5.57;;;1.30;;
32094;SDS011;18608;53.688;10.748;2023-08-08T12:18:38;6.00;;;1.33;;
32094;SDS011;18608;53.688;10.748;2023-08-08T12:21:05;4.27;;;1.10;;
32094;SDS011;18608;53.688;10.748;2023-08-08T12:23:32;3.43;;;1.03;;
32094;SDS011;18608;53.688;10.748;2023-08-08T12:25:58;4.40;;;1.20;;
32094;SDS011;18608;53.688;10.748;2023-08-08T12:28:25;4.43;;;1.20;;
32094;SDS011;18608;53.688;10.748;2023-08-08T12:30:51;5.43;;;1.50;;
32094;SDS011;18608;53.688;10.748;2023-08-08T12:33:17;5.33;;;1.50;;
32094;SDS011;18608;53.688;10.748;2023-08-08T12:35:43;1.37;;;0.87;;
32094;SDS011;18608;53.688;10.748;2023-08-08T12:38:09;1.70;;;1.60;;
32094;SDS011;18608;53.688;10.748;2023-08-08T12:40:35;2.00;;;0.80;;
32094;SDS011;18608;53.688;10.748;2023-08-08T12:43:01;2.97;;;1.00;;
32094;SDS011;18608;53.688;10.748;2023-08-08T12:45:27;2.23;;;1.30;;
32094;SDS011;18608;53.688;10.748;2023-08-08T12:47:53;5.43;;;1.10;;
32094;SDS011;18608;53.688;10.748;2023-08-08T12:50:19;3.83;;;1.00;;
32094;SDS011;18608;53.688;10.748;2023-08-08T12:52:45;2.20;;;1.07;;
32094;SDS011;18608;53.688;10.748;2023-08-08T12:55:11;5.30;;;0.97;;
32094;SDS011;18608;53.688;10.748;2023-08-08T12:57:40;5.80;;;1.37;;
32094;SDS011;18608;53.688;10.748;2023-08-08T13:00:06;4.90;;;1.20;;
32094;SDS011;18608;53.688;10.748;2023-08-08T13:02:33;0.90;;;0.90;;
32094;SDS011;18608;53.688;10.748;2023-08-08T13:04:59;3.13;;;1.30;;
32094;SDS011;18608;53.688;10.748;2023-08-08T13:07:28;6.07;;;1.30;;
32094;SDS011;18608;53.688;10.748;2023-08-08T13:09:54;5.17;;;1.17;;
32094;SDS011;18608;53.688;10.748;2023-08-08T13:12:20;4.83;;;1.00;;
32094;SDS011;18608;53.688;10.748;2023-08-08T13:14:46;1.03;;;1.00;;
32094;SDS011;18608;53.688;10.748;2023-08-08T13:17:12;4.37;;;1.30;;
32094;SDS011;18608;53.688;10.748;2023-08-08T13:19:39;3.30;;;1.10;;
32094;SDS011;18608;53.688;10.748;2023-08-08T13:22:05;4.67;;;1.80;;
32094;SDS011;18608;53.688;10.748;2023-08-08T13:24:31;4.23;;;2.13;;
32094;SDS011;18608;53.688;10.748;2023-08-08T13:26:57;8.50;;;1.03;;
32094;SDS011;18608;53.688;10.748;2023-08-08T13:29:23;2.00;;;1.40;;
32094;SDS011;18608;53.688;10.748;2023-08-08T13:31:49;3.90;;;1.40;;
32094;SDS011;18608;53.688;10.748;2023-08-08T13:34:16;4.70;;;1.43;;
32094;SDS011;18608;53.688;10.748;2023-08-08T13:36:42;6.20;;;2.10;;
32094;SDS011;18608;53.688;10.748;2023-08-08T13:39:08;3.20;;;1.40;;
32094;SDS011;18608;53.688;10.748;2023-08-08T13:41:37;4.63;;;1.50;;
32094;SDS011;18608;53.688;10.748;2023-08-08T13:44:03;3.57;;;0.90;;
32094;SDS011;18608;53.688;10.748;2023-08-08T13:46:29;3.90;;;1.20;;
32094;SDS011;18608;53.688;10.748;2023-08-08T13:48:55;4.73;;;1.40;;
32094;SDS011;18608;53.688;10.748;2023-08-08T13:51:21;10.80;;;1.37;;
32094;SDS011;18608;53.688;10.748;2023-08-08T13:53:47;2.60;;;1.60;;
32094;SDS011;18608;53.688;10.748;2023-08-08T13:56:17;11.53;;;1.40;;
32094;SDS011;18608;53.688;10.748;2023-08-08T13:58:43;3.70;;;1.57;;
32094;SDS011;18608;53.688;10.748;2023-08-08T14:01:09;9.73;;;3.43;;
32094;SDS011;18608;53.688;10.748;2023-08-08T14:03:35;10.23;;;2.27;;
32094;SDS011;18608;53.688;10.748;2023-08-08T14:06:01;4.37;;;1.33;;
32094;SDS011;18608;53.688;10.748;2023-08-08T14:08:27;1.30;;;1.20;;
32094;SDS011;18608;53.688;10.748;2023-08-08T14:10:53;5.70;;;1.83;;
32094;SDS011;18608;53.688;10.748;2023-08-08T14:13:19;9.90;;;1.83;;
32094;SDS011;18608;53.688;10.748;2023-08-08T14:15:46;6.90;;;1.93;;
32094;SDS011;18608;53.688;10.748;2023-08-08T14:18:12;9.40;;;2.17;;
32094;SDS011;18608;53.688;10.748;2023-08-08T14:20:38;4.20;;;1.43;;
32094;SDS011;18608;53.688;10.748;2023-08-08T14:23:04;2.97;;;1.13;;
32094;SDS011;18608;53.688;10.748;2023-08-08T14:25:31;3.87;;;1.20;;
32094;SDS011;18608;53.688;10.748;2023-08-08T14:27:57;2.50;;;1.27;;
32094;SDS011;18608;53.688;10.748;2023-08-08T14:30:24;2.43;;;1.57;;
32094;SDS011;18608;53.688;10.748;2023-08-08T14:32:52;3.90;;;1.40;;
32094;SDS011;18608;53.688;10.748;2023-08-08T14:35:19;9.60;;;1.80;;
32094;SDS011;18608;53.688;10.748;2023-08-08T14:37:45;2.47;;;2.33;;